sensor_id;sensor_type;location;lat;lon;timestamp;pressure;altitude;pressure_sealevel;temperature;humidity
79331;BME280;68797;49.782;19.054;2023-10-08T00:01:09;96916.88;;;16.30;72.08
79331;BME280;68797;49.782;19.054;2023-10-08T00:03:51;96922.22;;;16.30;71.80
79331;BME280;68797;49.782;19.054;2023-10-08T00:06:24;96930.16;;;16.32;72.11
79331;BME280;68797;49.782;19.054;2023-10-08T00:08:50;96912.63;;;16.26;72.36
79331;BME280;68797;49.782;19.054;2023-10-08T00:11:18;96914.19;;;16.30;71.89
79331;BME280;68797;49.782;19.054;2023-10-08T00:13:45;96908.91;;;16.28;72.03
79331;BME280;68797;49.782;19.054;2023-10-08T00:16:14;96903.16;;;16.20;72.30
79331;BME280;68797;49.782;19.054;2023-10-08T00:18:43;96915.22;;;16.27;72.18
79331;BME280;68797;49.782;19.054;2023-10-08T00:21:18;96916.25;;;16.25;71.73
79331;BME280;68797;49.782;19.054;2023-10-08T00:23:46;96909.38;;;16.21;72.53
79331;BME280;68797;49.782;19.054;2023-10-08T00:26:19;96916.81;;;16.16;72.64
79331;BME280;68797;49.782;19.054;2023-10-08T00:29:03;96896.00;;;16.21;72.43
79331;BME280;68797;49.782;19.054;2023-10-08T00:31:44;96910.59;;;16.15;72.46
79331;BME280;68797;49.782;19.054;2023-10-08T00:34:18;96899.53;;;16.21;72.82
79331;BME280;68797;49.782;19.054;2023-10-08T00:36:48;96897.22;;;16.15;72.52
79331;BME280;68797;49.782;19.054;2023-10-08T00:39:14;96890.81;;;16.18;72.71
79331;BME280;68797;49.782;19.054;2023-10-08T00:45:30;96892.91;;;16.13;73.41
79331;BME280;68797;49.782;19.054;2023-10-08T00:47:57;96902.09;;;16.09;73.60
79331;BME280;68797;49.782;19.054;2023-10-08T00:50:24;96898.53;;;16.08;74.01
79331;BME280;68797;49.782;19.054;2023-10-08T00:53:00;96877.28;;;16.05;73.09
79331;BME280;68797;49.782;19.054;2023-10-08T00:55:33;96899.31;;;16.10;72.89
79331;BME280;68797;49.782;19.054;2023-10-08T00:58:05;96904.66;;;16.10;73.02
79331;BME280;68797;49.782;19.054;2023-10-08T01:00:37;96888.59;;;16.10;73.77
79331;BME280;68797;49.782;19.054;2023-10-08T01:03:07;96884.97;;;16.11;72.57
79331;BME280;68797;49.782;19.054;2023-10-08T01:05:41;96888.50;;;16.12;73.11
79331;BME280;68797;49.782;19.054;2023-10-08T01:08:14;96902.56;;;16.15;72.38
79331;BME280;68797;49.782;19.054;2023-10-08T01:10:48;96884.31;;;16.08;72.73
79331;BME280;68797;49.782;19.054;2023-10-08T01:13:18;96891.72;;;16.03;72.88
79331;BME280;68797;49.782;19.054;2023-10-08T01:15:47;96890.69;;;16.05;73.20
79331;BME280;68797;49.782;19.054;2023-10-08T01:18:16;96881.78;;;16.05;73.24
79331;BME280;68797;49.782;19.054;2023-10-08T01:20:54;96891.81;;;16.01;74.42
79331;BME280;68797;49.782;19.054;2023-10-08T01:23:22;96896.50;;;15.97;73.42
79331;BME280;68797;49.782;19.054;2023-10-08T01:25:52;96892.09;;;15.96;74.28
79331;BME280;68797;49.782;19.054;2023-10-08T01:28:23;96871.56;;;15.97;74.00
79331;BME280;68797;49.782;19.054;2023-10-08T01:30:56;96893.72;;;15.99;74.09
79331;BME280;68797;49.782;19.054;2023-10-08T01:33:24;96894.41;;;16.03;74.56
79331;BME280;68797;49.782;19.054;2023-10-08T01:35:54;96872.41;;;15.97;74.11
79331;BME280;68797;49.782;19.054;2023-10-08T01:38:20;96889.25;;;16.00;74.15
79331;BME280;68797;49.782;19.054;2023-10-08T01:40:50;96881.03;;;16.03;73.66
79331;BME280;68797;49.782;19.054;2023-10-08T01:43:17;96874.13;;;15.98;74.47
79331;BME280;68797;49.782;19.054;2023-10-08T01:45:44;96869.75;;;15.97;73.87
79331;BME280;68797;49.782;19.054;2023-10-08T01:48:15;96860.53;;;15.87;74.71
79331;BME280;68797;49.782;19.054;2023-10-08T01:50:54;96855.19;;;15.87;75.04
79331;BME280;68797;49.782;19.054;2023-10-08T01:53:21;96844.75;;;15.83;74.97
79331;BME280;68797;49.782;19.054;2023-10-08T01:55:47;96849.31;;;15.81;75.10
79331;BME280;68797;49.782;19.054;2023-10-08T01:58:18;96855.91;;;15.75;75.41
79331;BME280;68797;49.782;19.054;2023-10-08T02:00:45;96858.50;;;15.77;74.82
79331;BME280;68797;49.782;19.054;2023-10-08T02:03:15;96860.03;;;15.81;74.78
79331;BME280;68797;49.782;19.054;2023-10-08T02:05:42;96855.44;;;15.83;75.13
79331;BME280;68797;49.782;19.054;2023-10-08T02:08:10;96854.88;;;15.78;74.83
79331;BME280;68797;49.782;19.054;2023-10-08T02:10:41;96847.94;;;15.74;75.05
79331;BME280;68797;49.782;19.054;2023-10-08T02:13:10;96841.50;;;15.78;74.91
79331;BME280;68797;49.782;19.054;2023-10-08T02:15:41;96843.31;;;15.77;75.16
79331;BME280;68797;49.782;19.054;2023-10-08T02:18:07;96832.59;;;15.77;75.03
79331;BME280;68797;49.782;19.054;2023-10-08T02:20:36;96832.28;;;15.67;74.68
79331;BME280;68797;49.782;19.054;2023-10-08T02:23:03;96825.97;;;15.68;74.99
79331;BME280;68797;49.782;19.054;2023-10-08T02:25:31;96833.06;;;15.69;75.33
79331;BME280;68797;49.782;19.054;2023-10-08T02:27:58;96819.00;;;15.66;75.04
79331;BME280;68797;49.782;19.054;2023-10-08T02:30:24;96815.28;;;15.68;75.40
79331;BME280;68797;49.782;19.054;2023-10-08T02:32:50;96813.28;;;15.72;75.12
79331;BME280;68797;49.782;19.054;2023-10-08T02:35:18;96833.56;;;15.76;74.49
79331;BME280;68797;49.782;19.054;2023-10-08T02:37:44;96832.59;;;15.77;75.28
79331;BME280;68797;49.782;19.054;2023-10-08T02:40:11;96828.13;;;15.78;75.40
79331;BME280;68797;49.782;19.054;2023-10-08T02:42:54;96837.88;;;15.79;75.36
79331;BME280;68797;49.782;19.054;2023-10-08T02:45:28;96844.84;;;15.81;75.58
79331;BME280;68797;49.782;19.054;2023-10-08T02:47:55;96835.28;;;15.77;75.19
79331;BME280;68797;49.782;19.054;2023-10-08T02:50:22;96840.00;;;15.88;75.05
79331;BME280;68797;49.782;19.054;2023-10-08T02:52:49;96838.72;;;15.79;75.01
79331;BME280;68797;49.782;19.054;2023-10-08T02:55:18;96848.38;;;15.82;74.91
79331;BME280;68797;49.782;19.054;2023-10-08T02:57:50;96842.44;;;15.77;75.62
79331;BME280;68797;49.782;19.054;2023-10-08T03:00:17;96848.47;;;15.80;75.36
79331;BME280;68797;49.782;19.054;2023-10-08T03:02:46;96857.25;;;15.82;75.40
79331;BME280;68797;49.782;19.054;2023-10-08T03:05:13;96853.72;;;15.82;75.67
79331;BME280;68797;49.782;19.054;2023-10-08T03:07:44;96849.72;;;15.75;75.89
79331;BME280;68797;49.782;19.054;2023-10-08T03:10:10;96872.97;;;15.73;76.79
79331;BME280;68797;49.782;19.054;2023-10-08T03:12:46;96857.50;;;15.63;77.97
79331;BME280;68797;49.782;19.054;2023-10-08T03:15:14;96877.56;;;15.55;80.90
79331;BME280;68797;49.782;19.054;2023-10-08T03:17:55;96883.53;;;15.28;82.71
79331;BME280;68797;49.782;19.054;2023-10-08T03:20:23;96892.97;;;15.20;82.76
79331;BME280;68797;49.782;19.054;2023-10-08T03:23:04;96897.56;;;14.85;90.17
79331;BME280;68797;49.782;19.054;2023-10-08T03:25:52;96919.41;;;14.42;93.07
79331;BME280;68797;49.782;19.054;2023-10-08T03:28:27;96913.66;;;13.27;91.05
79331;BME280;68797;49.782;19.054;2023-10-08T03:30:55;96934.09;;;12.89;91.13
79331;BME280;68797;49.782;19.054;2023-10-08T03:33:43;96946.59;;;12.28;93.47
79331;BME280;68797;49.782;19.054;2023-10-08T03:36:15;96938.44;;;12.12;94.64
79331;BME280;68797;49.782;19.054;2023-10-08T03:38:47;96940.69;;;11.79;96.45
79331;BME280;68797;49.782;19.054;2023-10-08T03:41:26;96939.59;;;11.84;97.74
79331;BME280;68797;49.782;19.054;2023-10-08T03:43:57;96973.13;;;11.88;97.70
79331;BME280;68797;49.782;19.054;2023-10-08T03:46:32;96967.19;;;11.82;96.47
79331;BME280;68797;49.782;19.054;2023-10-08T03:49:05;96954.38;;;11.70;96.15
79331;BME280;68797;49.782;19.054;2023-10-08T03:51:51;96977.28;;;11.72;97.73
79331;BME280;68797;49.782;19.054;2023-10-08T03:54:19;97001.84;;;11.79;98.39
79331;BME280;68797;49.782;19.054;2023-10-08T03:56:50;97015.13;;;11.79;97.25
79331;BME280;68797;49.782;19.054;2023-10-08T03:59:17;97018.59;;;11.59;97.77
79331;BME280;68797;49.782;19.054;2023-10-08T04:01:47;97044.81;;;11.68;97.95
79331;BME280;68797;49.782;19.054;2023-10-08T04:04:21;97058.13;;;11.45;97.42
79331;BME280;68797;49.782;19.054;2023-10-08T04:06:56;97085.63;;;11.20;97.99
79331;BME280;68797;49.782;19.054;2023-10-08T04:09:42;97102.28;;;11.00;98.64
79331;BME280;68797;49.782;19.054;2023-10-08T04:12:08;97106.53;;;11.04;97.75
79331;BME280;68797;49.782;19.054;2023-10-08T04:14:37;97114.66;;;11.25;98.04
79331;BME280;68797;49.782;19.054;2023-10-08T04:17:03;97110.31;;;11.22;96.91
79331;BME280;68797;49.782;19.054;2023-10-08T04:19:30;97105.41;;;11.12;97.01
79331;BME280;68797;49.782;19.054;2023-10-08T04:21:56;97104.53;;;11.11;96.21
79331;BME280;68797;49.782;19.054;2023-10-08T04:24:24;97094.91;;;11.09;96.07
79331;BME280;68797;49.782;19.054;2023-10-08T04:27:01;97116.84;;;11.14;96.00
79331;BME280;68797;49.782;19.054;2023-10-08T04:29:29;97119.31;;;11.18;96.86
79331;BME280;68797;49.782;19.054;2023-10-08T04:31:59;97124.69;;;11.17;96.81
79331;BME280;68797;49.782;19.054;2023-10-08T04:34:34;97141.22;;;11.00;97.37
79331;BME280;68797;49.782;19.054;2023-10-08T04:37:00;97155.88;;;10.87;97.99
79331;BME280;68797;49.782;19.054;2023-10-08T04:39:28;97154.63;;;10.70;99.20
79331;BME280;68797;49.782;19.054;2023-10-08T04:42:02;97151.38;;;10.62;99.20
79331;BME280;68797;49.782;19.054;2023-10-08T04:44:39;97156.38;;;10.71;99.61
79331;BME280;68797;49.782;19.054;2023-10-08T04:47:09;97179.75;;;10.60;99.50
79331;BME280;68797;49.782;19.054;2023-10-08T04:49:36;97191.22;;;10.61;100.00
79331;BME280;68797;49.782;19.054;2023-10-08T04:52:11;97187.19;;;10.49;100.00
79331;BME280;68797;49.782;19.054;2023-10-08T04:54:42;97183.63;;;10.50;98.54
79331;BME280;68797;49.782;19.054;2023-10-08T04:57:18;97168.91;;;10.40;99.55
79331;BME280;68797;49.782;19.054;2023-10-08T04:59:52;97184.75;;;10.43;100.00
79331;BME280;68797;49.782;19.054;2023-10-08T05:02:23;97203.16;;;10.47;100.00
79331;BME280;68797;49.782;19.054;2023-10-08T05:05:19;97224.00;;;10.32;100.00
79331;BME280;68797;49.782;19.054;2023-10-08T05:07:46;97234.56;;;10.33;100.00
79331;BME280;68797;49.782;19.054;2023-10-08T05:10:26;97243.56;;;10.28;100.00
79331;BME280;68797;49.782;19.054;2023-10-08T05:12:54;97236.34;;;10.03;99.75
79331;BME280;68797;49.782;19.054;2023-10-08T05:15:33;97251.59;;;9.95;100.00
79331;BME280;68797;49.782;19.054;2023-10-08T05:18:04;97267.59;;;9.92;100.00
79331;BME280;68797;49.782;19.054;2023-10-08T05:20:51;97285.38;;;9.88;100.00
79331;BME280;68797;49.782;19.054;2023-10-08T05:23:20;97295.53;;;9.73;100.00
79331;BME280;68797;49.782;19.054;2023-10-08T05:26:02;97291.44;;;9.61;100.00
79331;BME280;68797;49.782;19.054;2023-10-08T05:28:46;97294.91;;;9.30;100.00
79331;BME280;68797;49.782;19.054;2023-10-08T05:31:29;97322.69;;;9.48;100.00
79331;BME280;68797;49.782;19.054;2023-10-08T05:34:08;97302.66;;;9.38;100.00
79331;BME280;68797;49.782;19.054;2023-10-08T05:36:51;97311.50;;;9.37;100.00
79331;BME280;68797;49.782;19.054;2023-10-08T05:39:33;97320.50;;;9.30;100.00
79331;BME280;68797;49.782;19.054;2023-10-08T05:42:09;97325.25;;;9.51;100.00
79331;BME280;68797;49.782;19.054;2023-10-08T05:44:54;97349.44;;;9.38;100.00
79331;BME280;68797;49.782;19.054;2023-10-08T05:47:39;97347.44;;;9.47;100.00
79331;BME280;68797;49.782;19.054;2023-10-08T05:50:09;97360.16;;;9.67;100.00
79331;BME280;68797;49.782;19.054;2023-10-08T05:52:57;97366.81;;;9.82;98.63
79331;BME280;68797;49.782;19.054;2023-10-08T05:55:24;97361.47;;;9.83;99.51
79331;BME280;68797;49.782;19.054;2023-10-08T05:57:54;97358.66;;;9.89;98.72
79331;BME280;68797;49.782;19.054;2023-10-08T06:00:44;97371.25;;;9.81;98.70
79331;BME280;68797;49.782;19.054;2023-10-08T06:03:29;97394.13;;;9.84;97.72
79331;BME280;68797;49.782;19.054;2023-10-08T06:06:07;97404.09;;;9.76;98.97
79331;BME280;68797;49.782;19.054;2023-10-08T06:08:41;97412.72;;;9.82;98.91
79331;BME280;68797;49.782;19.054;2023-10-08T06:11:26;97413.41;;;9.90;98.97
79331;BME280;68797;49.782;19.054;2023-10-08T06:14:12;97399.09;;;9.98;97.96
79331;BME280;68797;49.782;19.054;2023-10-08T06:16:57;97402.66;;;9.95;98.06
79331;BME280;68797;49.782;19.054;2023-10-08T06:19:51;97402.81;;;9.90;97.74
79331;BME280;68797;49.782;19.054;2023-10-08T06:22:19;97414.28;;;9.91;97.96
79331;BME280;68797;49.782;19.054;2023-10-08T06:24:52;97431.34;;;9.81;98.35
79331;BME280;68797;49.782;19.054;2023-10-08T06:27:42;97420.00;;;9.76;99.41
79331;BME280;68797;49.782;19.054;2023-10-08T06:30:12;97430.84;;;9.99;97.90
79331;BME280;68797;49.782;19.054;2023-10-08T06:32:43;97440.75;;;9.93;97.71
79331;BME280;68797;49.782;19.054;2023-10-08T06:35:12;97449.25;;;9.71;97.20
79331;BME280;68797;49.782;19.054;2023-10-08T06:37:47;97466.00;;;9.72;98.67
79331;BME280;68797;49.782;19.054;2023-10-08T06:40:35;97466.69;;;9.80;98.62
79331;BME280;68797;49.782;19.054;2023-10-08T06:43:02;97469.22;;;9.84;98.13
79331;BME280;68797;49.782;19.054;2023-10-08T06:45:42;97455.97;;;9.84;98.77
79331;BME280;68797;49.782;19.054;2023-10-08T06:48:10;97454.91;;;9.92;98.25
79331;BME280;68797;49.782;19.054;2023-10-08T06:50:49;97461.47;;;10.11;97.39
79331;BME280;68797;49.782;19.054;2023-10-08T06:53:17;97467.69;;;10.10;97.94
79331;BME280;68797;49.782;19.054;2023-10-08T06:55:48;97461.13;;;9.90;97.11
79331;BME280;68797;49.782;19.054;2023-10-08T06:58:20;97473.50;;;9.90;98.25
79331;BME280;68797;49.782;19.054;2023-10-08T07:00:52;97496.59;;;9.85;98.01
79331;BME280;68797;49.782;19.054;2023-10-08T07:03:19;97494.06;;;9.80;98.36
79331;BME280;68797;49.782;19.054;2023-10-08T07:05:48;97507.09;;;9.89;98.65
79331;BME280;68797;49.782;19.054;2023-10-08T07:08:29;97503.41;;;9.95;98.64
79331;BME280;68797;49.782;19.054;2023-10-08T07:11:03;97497.78;;;10.07;97.31
79331;BME280;68797;49.782;19.054;2023-10-08T07:13:33;97502.75;;;9.85;97.87
79331;BME280;68797;49.782;19.054;2023-10-08T07:16:03;97502.84;;;9.82;98.34
79331;BME280;68797;49.782;19.054;2023-10-08T07:18:30;97498.63;;;9.74;98.31
79331;BME280;68797;49.782;19.054;2023-10-08T07:21:00;97497.41;;;9.88;99.05
79331;BME280;68797;49.782;19.054;2023-10-08T07:23:28;97500.47;;;10.06;98.75
79331;BME280;68797;49.782;19.054;2023-10-08T07:26:03;97503.84;;;10.12;98.37
79331;BME280;68797;49.782;19.054;2023-10-08T07:28:41;97505.72;;;10.07;95.78
79331;BME280;68797;49.782;19.054;2023-10-08T07:31:22;97512.78;;;10.08;96.98
79331;BME280;68797;49.782;19.054;2023-10-08T07:33:56;97506.25;;;10.23;97.40
79331;BME280;68797;49.782;19.054;2023-10-08T07:36:27;97502.84;;;10.16;96.87
79331;BME280;68797;49.782;19.054;2023-10-08T07:38:54;97522.75;;;10.34;96.82
79331;BME280;68797;49.782;19.054;2023-10-08T07:41:21;97513.09;;;10.32;96.29
79331;BME280;68797;49.782;19.054;2023-10-08T07:43:48;97541.22;;;10.37;96.09
79331;BME280;68797;49.782;19.054;2023-10-08T07:46:26;97537.03;;;10.29;97.68
79331;BME280;68797;49.782;19.054;2023-10-08T07:48:56;97530.75;;;10.33;97.07
79331;BME280;68797;49.782;19.054;2023-10-08T07:51:30;97522.78;;;10.33;96.72
79331;BME280;68797;49.782;19.054;2023-10-08T07:54:02;97537.69;;;10.37;96.24
79331;BME280;68797;49.782;19.054;2023-10-08T07:56:50;97538.53;;;10.39;96.81
79331;BME280;68797;49.782;19.054;2023-10-08T07:59:36;97554.09;;;10.51;96.63
79331;BME280;68797;49.782;19.054;2023-10-08T08:02:09;97540.34;;;10.37;94.42
79331;BME280;68797;49.782;19.054;2023-10-08T08:04:43;97563.59;;;10.27;95.47
79331;BME280;68797;49.782;19.054;2023-10-08T08:07:13;97555.75;;;10.23;95.58
79331;BME280;68797;49.782;19.054;2023-10-08T08:09:47;97569.03;;;10.23;96.97
79331;BME280;68797;49.782;19.054;2023-10-08T08:12:19;97557.94;;;10.05;96.17
79331;BME280;68797;49.782;19.054;2023-10-08T08:14:48;97548.50;;;9.94;96.46
79331;BME280;68797;49.782;19.054;2023-10-08T08:17:15;97574.75;;;10.04;95.76
79331;BME280;68797;49.782;19.054;2023-10-08T08:19:44;97566.78;;;10.04;97.80
79331;BME280;68797;49.782;19.054;2023-10-08T08:22:16;97552.25;;;9.85;97.02
79331;BME280;68797;49.782;19.054;2023-10-08T08:24:49;97578.66;;;9.89;97.47
79331;BME280;68797;49.782;19.054;2023-10-08T08:27:20;97567.19;;;9.89;97.12
79331;BME280;68797;49.782;19.054;2023-10-08T08:30:15;97581.38;;;9.85;96.21
79331;BME280;68797;49.782;19.054;2023-10-08T08:32:46;97585.06;;;9.79;98.04
79331;BME280;68797;49.782;19.054;2023-10-08T08:35:22;97583.13;;;9.86;99.02
79331;BME280;68797;49.782;19.054;2023-10-08T08:37:51;97576.75;;;9.95;98.52
79331;BME280;68797;49.782;19.054;2023-10-08T08:40:19;97587.59;;;9.84;98.00
79331;BME280;68797;49.782;19.054;2023-10-08T08:42:50;97593.38;;;10.01;98.81
79331;BME280;68797;49.782;19.054;2023-10-08T08:45:22;97587.31;;;9.96;97.19
79331;BME280;68797;49.782;19.054;2023-10-08T08:47:53;97598.19;;;9.84;99.30
79331;BME280;68797;49.782;19.054;2023-10-08T08:50:19;97608.19;;;9.73;98.91
79331;BME280;68797;49.782;19.054;2023-10-08T08:52:47;97614.03;;;9.88;98.88
79331;BME280;68797;49.782;19.054;2023-10-08T08:55:13;97606.50;;;10.06;98.03
79331;BME280;68797;49.782;19.054;2023-10-08T08:57:47;97599.97;;;10.21;98.18
79331;BME280;68797;49.782;19.054;2023-10-08T09:00:15;97600.84;;;10.21;96.92
79331;BME280;68797;49.782;19.054;2023-10-08T09:02:46;97609.78;;;10.17;96.97
79331;BME280;68797;49.782;19.054;2023-10-08T09:05:13;97612.94;;;10.34;99.05
79331;BME280;68797;49.782;19.054;2023-10-08T09:07:59;97623.69;;;10.62;97.75
79331;BME280;68797;49.782;19.054;2023-10-08T09:10:29;97626.50;;;10.56;97.86
79331;BME280;68797;49.782;19.054;2023-10-08T09:12:57;97621.13;;;10.59;97.09
79331;BME280;68797;49.782;19.054;2023-10-08T09:15:25;97618.44;;;10.25;96.43
79331;BME280;68797;49.782;19.054;2023-10-08T09:17:53;97638.91;;;10.20;95.69
79331;BME280;68797;49.782;19.054;2023-10-08T09:20:20;97631.63;;;10.28;97.11
79331;BME280;68797;49.782;19.054;2023-10-08T09:23:07;97641.28;;;10.31;96.21
79331;BME280;68797;49.782;19.054;2023-10-08T09:25:34;97647.38;;;10.70;96.39
79331;BME280;68797;49.782;19.054;2023-10-08T09:28:02;97654.22;;;10.79;95.17
79331;BME280;68797;49.782;19.054;2023-10-08T09:30:29;97638.56;;;11.02;96.33
79331;BME280;68797;49.782;19.054;2023-10-08T09:32:56;97647.81;;;11.20;93.02
79331;BME280;68797;49.782;19.054;2023-10-08T09:35:24;97648.31;;;11.62;96.18
79331;BME280;68797;49.782;19.054;2023-10-08T09:37:53;97645.66;;;12.21;96.39
79331;BME280;68797;49.782;19.054;2023-10-08T09:40:20;97641.81;;;11.72;91.79
79331;BME280;68797;49.782;19.054;2023-10-08T09:42:47;97642.81;;;11.39;92.61
79331;BME280;68797;49.782;19.054;2023-10-08T09:45:13;97648.25;;;11.65;94.20
79331;BME280;68797;49.782;19.054;2023-10-08T09:47:43;97639.41;;;11.64;92.84
79331;BME280;68797;49.782;19.054;2023-10-08T09:50:15;97638.53;;;11.64;90.98
79331;BME280;68797;49.782;19.054;2023-10-08T09:55:32;97641.53;;;11.83;91.08
79331;BME280;68797;49.782;19.054;2023-10-08T09:57:59;97647.06;;;11.75;89.49
79331;BME280;68797;49.782;19.054;2023-10-08T10:00:27;97649.75;;;11.44;89.99
79331;BME280;68797;49.782;19.054;2023-10-08T10:03:00;97663.03;;;11.13;90.05
79331;BME280;68797;49.782;19.054;2023-10-08T10:05:31;97655.72;;;11.21;88.80
79331;BME280;68797;49.782;19.054;2023-10-08T10:07:58;97659.81;;;11.33;90.97
79331;BME280;68797;49.782;19.054;2023-10-08T10:10:33;97661.22;;;11.76;88.41
79331;BME280;68797;49.782;19.054;2023-10-08T10:13:05;97655.09;;;12.30;92.17
79331;BME280;68797;49.782;19.054;2023-10-08T10:15:35;97646.78;;;12.67;86.18
79331;BME280;68797;49.782;19.054;2023-10-08T11:04:35;97675.22;;;11.82;73.81
79331;BME280;68797;49.782;19.054;2023-10-08T11:07:23;97698.50;;;11.73;73.03
79331;BME280;68797;49.782;19.054;2023-10-08T11:09:50;97693.69;;;11.56;65.60
79331;BME280;68797;49.782;19.054;2023-10-08T11:12:18;97704.91;;;11.97;73.18
79331;BME280;68797;49.782;19.054;2023-10-08T11:14:49;97703.16;;;11.96;68.59
79331;BME280;68797;49.782;19.054;2023-10-08T11:17:23;97703.00;;;11.71;66.10
79331;BME280;68797;49.782;19.054;2023-10-08T11:19:52;97697.22;;;11.56;67.51
79331;BME280;68797;49.782;19.054;2023-10-08T11:22:20;97712.00;;;11.67;69.89
79331;BME280;68797;49.782;19.054;2023-10-08T11:24:48;97712.31;;;11.56;65.65
79331;BME280;68797;49.782;19.054;2023-10-08T11:27:20;97703.91;;;11.39;65.02
79331;BME280;68797;49.782;19.054;2023-10-08T11:30:04;97710.97;;;11.40;63.30
79331;BME280;68797;49.782;19.054;2023-10-08T11:32:37;97722.38;;;11.45;61.46
79331;BME280;68797;49.782;19.054;2023-10-08T11:35:05;97717.78;;;11.17;58.83
79331;BME280;68797;49.782;19.054;2023-10-08T11:37:48;97727.63;;;11.14;54.65
79331;BME280;68797;49.782;19.054;2023-10-08T11:40:24;97731.97;;;11.16;58.51
79331;BME280;68797;49.782;19.054;2023-10-08T11:43:15;97729.03;;;11.27;60.13
79331;BME280;68797;49.782;19.054;2023-10-08T11:45:44;97724.44;;;11.33;60.01
79331;BME280;68797;49.782;19.054;2023-10-08T11:48:30;97722.38;;;11.45;58.53
79331;BME280;68797;49.782;19.054;2023-10-08T11:50:58;97705.66;;;11.40;60.40
79331;BME280;68797;49.782;19.054;2023-10-08T11:53:27;97717.72;;;11.51;64.13
79331;BME280;68797;49.782;19.054;2023-10-08T11:55:57;97724.28;;;11.71;64.18
79331;BME280;68797;49.782;19.054;2023-10-08T11:58:24;97727.53;;;11.49;58.98
79331;BME280;68797;49.782;19.054;2023-10-08T12:01:03;97741.34;;;11.31;60.24
79331;BME280;68797;49.782;19.054;2023-10-08T12:03:30;97751.84;;;11.35;58.76
79331;BME280;68797;49.782;19.054;2023-10-08T12:05:57;97741.44;;;11.26;57.05
79331;BME280;68797;49.782;19.054;2023-10-08T12:08:28;97750.97;;;11.35;62.11
79331;BME280;68797;49.782;19.054;2023-10-08T12:10:54;97750.09;;;11.34;57.11
79331;BME280;68797;49.782;19.054;2023-10-08T12:13:22;97755.47;;;11.33;58.36
79331;BME280;68797;49.782;19.054;2023-10-08T12:15:53;97742.94;;;11.37;58.99
79331;BME280;68797;49.782;19.054;2023-10-08T12:18:33;97758.16;;;11.30;58.07
79331;BME280;68797;49.782;19.054;2023-10-08T12:21:05;97760.25;;;11.19;53.68
79331;BME280;68797;49.782;19.054;2023-10-08T12:23:39;97756.16;;;11.05;54.83
79331;BME280;68797;49.782;19.054;2023-10-08T12:26:06;97755.66;;;10.91;55.87
79331;BME280;68797;49.782;19.054;2023-10-08T12:28:36;97759.56;;;10.76;53.96
79331;BME280;68797;49.782;19.054;2023-10-08T12:31:03;97766.84;;;10.68;58.13
79331;BME280;68797;49.782;19.054;2023-10-08T12:33:36;97775.41;;;10.80;58.41
79331;BME280;68797;49.782;19.054;2023-10-08T12:36:04;97747.22;;;10.74;58.31
79331;BME280;68797;49.782;19.054;2023-10-08T12:38:41;97765.91;;;11.05;54.81
79331;BME280;68797;49.782;19.054;2023-10-08T12:41:13;97756.75;;;11.17;56.71
79331;BME280;68797;49.782;19.054;2023-10-08T12:43:46;97745.75;;;11.30;57.88
79331;BME280;68797;49.782;19.054;2023-10-08T12:46:15;97765.16;;;11.34;56.09
79331;BME280;68797;49.782;19.054;2023-10-08T12:48:45;97763.47;;;11.30;57.50
79331;BME280;68797;49.782;19.054;2023-10-08T12:51:15;97763.63;;;11.25;57.79
79331;BME280;68797;49.782;19.054;2023-10-08T12:53:42;97766.91;;;11.35;57.07
79331;BME280;68797;49.782;19.054;2023-10-08T12:56:34;97771.94;;;11.46;57.32
79331;BME280;68797;49.782;19.054;2023-10-08T12:59:46;97767.16;;;11.26;55.77
79331;BME280;68797;49.782;19.054;2023-10-08T13:02:17;97776.06;;;11.23;56.06
79331;BME280;68797;49.782;19.054;2023-10-08T13:04:55;97769.06;;;11.19;53.37
79331;BME280;68797;49.782;19.054;2023-10-08T13:07:23;97775.28;;;11.20;54.85
79331;BME280;68797;49.782;19.054;2023-10-08T13:09:53;97792.88;;;11.24;54.04
79331;BME280;68797;49.782;19.054;2023-10-08T13:12:19;97768.38;;;11.13;52.59
79331;BME280;68797;49.782;19.054;2023-10-08T13:14:47;97778.28;;;11.06;53.71
79331;BME280;68797;49.782;19.054;2023-10-08T13:17:13;97783.69;;;11.03;53.41
79331;BME280;68797;49.782;19.054;2023-10-08T13:19:40;97780.56;;;11.21;54.42
79331;BME280;68797;49.782;19.054;2023-10-08T13:31:09;97787.34;;;10.99;55.75
79331;BME280;68797;49.782;19.054;2023-10-08T13:33:40;97799.63;;;11.03;53.16
79331;BME280;68797;49.782;19.054;2023-10-08T13:36:58;97799.75;;;10.98;53.57
79331;BME280;68797;49.782;19.054;2023-10-08T13:39:35;97799.00;;;10.92;52.17
79331;BME280;68797;49.782;19.054;2023-10-08T13:42:01;97813.41;;;10.82;51.32
79331;BME280;68797;49.782;19.054;2023-10-08T13:44:48;97817.06;;;10.77;52.51
79331;BME280;68797;49.782;19.054;2023-10-08T13:47:15;97815.31;;;10.75;50.77
79331;BME280;68797;49.782;19.054;2023-10-08T13:50:03;97799.94;;;10.54;51.68
79331;BME280;68797;49.782;19.054;2023-10-08T13:52:37;97797.03;;;10.63;53.27
79331;BME280;68797;49.782;19.054;2023-10-08T13:55:12;97797.41;;;10.47;54.38
79331;BME280;68797;49.782;19.054;2023-10-08T13:57:44;97815.81;;;10.55;54.80
79331;BME280;68797;49.782;19.054;2023-10-08T14:00:16;97820.34;;;10.50;55.30
79331;BME280;68797;49.782;19.054;2023-10-08T14:02:43;97820.09;;;10.61;57.40
79331;BME280;68797;49.782;19.054;2023-10-08T14:05:13;97818.34;;;10.60;56.97
79331;BME280;68797;49.782;19.054;2023-10-08T14:08:00;97820.41;;;10.47;56.46
79331;BME280;68797;49.782;19.054;2023-10-08T14:10:49;97827.66;;;10.39;55.37
79331;BME280;68797;49.782;19.054;2023-10-08T14:13:16;97830.78;;;10.16;53.99
79331;BME280;68797;49.782;19.054;2023-10-08T14:15:47;97848.50;;;10.14;54.23
79331;BME280;68797;49.782;19.054;2023-10-08T14:18:22;97847.75;;;10.09;56.10
79331;BME280;68797;49.782;19.054;2023-10-08T14:20:57;97839.03;;;10.02;55.09